Latest Coastal Weather Observations for Cape Ferguson

IDQ60701

Issued at 9:55 pm EST Friday 24 October 2014 (issued every 10 minutes, with the page automatically refreshed every 10 minutes)

About coastal observations | Map of coastal stations | Coastal observations for QLD | Marine services | Other Formats
Station Details ID: 032182 Name: CAPE FERGUSON NTC AWS Lat: -19.28 Lon: 147.06 Height: 0.0 m
Data from the previous 72 hours. | See also: Recent months for locations in Queensland
Date/Time
EST
Temp

°C
Wind Pressure Rain
since 9am
mm
Weather Cloud Vis
km
Sea
Height
m
Swell
Dir
 
Speed
knots
Gust
knots
hPa Trend Height
m
Period
s
Dir
24/09:30pm 23.9 E 14 17 1020.0 - - - - - - - - -
24/09:00pm 24.0 E 14 17 1019.8 - - - - - - - - -
24/08:30pm 23.9 E 14 16 1019.5 - - - - - - - - -
24/08:00pm 23.8 E 13 16 1019.0 - - - - - - - - -
24/07:30pm 23.9 E 11 14 1018.8 - - - - - - - - -
24/07:00pm 23.9 E 13 15 1018.4 - - - - - - - - -
24/06:30pm 23.9 E 12 15 1018.2 - - - - - - - - -
24/06:00pm 24.0 E 11 13 1017.9 - - - - - - - - -
24/05:30pm 24.1 ENE 10 12 1017.7 - - - - - - - - -
24/05:00pm 24.0 E 9 10 1017.3 - - - - - - - - -
24/04:30pm 23.9 E 9 11 1017.0 - - - - - - - - -
24/04:00pm 23.9 E 9 12 1017.0 - - - - - - - - -
24/03:30pm 23.9 E 10 12 1017.0 - - - - - - - - -
24/03:00pm 23.8 E 10 12 1017.1 - - - - - - - - -
24/02:30pm 23.6 E 9 11 1017.3 - - - - - - - - -
24/02:00pm 23.8 E 8 10 1017.5 - - - - - - - - -
24/01:30pm 23.6 E 8 10 1018.0 - - - - - - - - -
24/01:00pm 23.6 E 8 10 1018.4 - - - - - - - - -
24/12:30pm 23.6 E 8 11 1018.7 - - - - - - - - -
24/12:00pm 23.6 E 10 12 1019.1 - - - - - - - - -
24/11:30am 23.9 E 10 12 1019.3 - - - - - - - - -
24/11:00am 23.8 E 8 10 1019.4 - - - - - - - - -
24/10:30am 23.5 E 7 8 1019.7 - - - - - - - - -
24/10:00am 23.1 ESE 6 8 1019.8 - - - - - - - - -
24/09:30am 22.9 ESE 7 10 1020.0 - - - - - - - - -
24/09:00am 22.6 SE 10 12 1020.2 - - - - - - - - -
24/08:30am 22.3 SSE 9 11 1020.1 - - - - - - - - -
24/08:00am 21.8 SSE 10 12 1020.0 - - - - - - - - -
24/07:30am 21.3 SSE 11 13 1019.8 - - - - - - - - -
24/07:00am 21.4 SSE 11 13 1019.6 - - - - - - - - -
24/06:30am 21.1 S 8 10 1019.3 - - - - - - - - -
24/06:00am 21.0 S 6 10 1018.8 - - - - - - - - -
24/05:30am 20.3 WSW 3 5 1018.5 - - - - - - - - -
24/05:00am 20.8 S 8 10 1018.2 - - - - - - - - -
24/04:30am 21.5 S 9 11 1018.0 - - - - - - - - -
24/04:00am 21.8 SSE 10 11 1017.8 - - - - - - - - -
24/03:30am 22.2 SSE 10 12 1017.7 - - - - - - - - -
24/03:00am 23.0 SSE 8 10 1017.7 - - - - - - - - -
24/02:30am 23.6 E 11 13 1017.9 - - - - - - - - -
24/02:00am 23.8 E 12 14 1018.2 - - - - - - - - -
24/01:30am 23.7 E 11 13 1018.6 - - - - - - - - -
24/01:00am 23.9 E 12 14 1019.0 - - - - - - - - -
24/12:30am 23.8 E 13 15 1019.4 - - - - - - - - -
24/12:00am 23.8 E 13 16 1019.5 - - - - - - - - -
 
Date/Time
EST
Temp

°C
Wind Pressure Rain
since 9am
mm
Weather Cloud Vis
km
Sea
Height
m
Swell
Dir
 
Speed
knots
Gust
knots
hPa Trend Height
m
Period
s
Dir
23/11:30pm 23.9 E 13 15 1019.8 - - - - - - - - -
23/11:00pm 23.9 E 14 16 1020.0 - - - - - - - - -
23/10:30pm 23.8 E 15 18 1020.0 - - - - - - - - -
23/10:00pm 23.9 E 15 18 1019.8 - - - - - - - - -
23/09:30pm 23.8 E 16 19 1019.7 - - - - - - - - -
23/09:00pm 23.7 E 15 18 1019.4 - - - - - - - - -
23/08:30pm 23.8 E 14 17 1019.0 - - - - - - - - -
23/08:00pm 24.0 E 13 16 1018.6 - - - - - - - - -
23/07:30pm 24.0 E 13 15 1018.3 - - - - - - - - -
23/07:00pm 24.0 E 12 15 1018.0 - - - - - - - - -
23/06:30pm 24.0 E 13 15 1017.6 - - - - - - - - -
23/06:00pm 24.2 E 11 13 1017.2 - - - - - - - - -
23/05:30pm 24.3 ENE 10 12 1016.9 - - - - - - - - -
23/05:00pm 24.2 E 10 11 1016.5 - - - - - - - - -
23/04:30pm 24.3 E 11 15 1016.1 - - - - - - - - -
23/04:00pm 24.3 E 11 13 1016.0 - - - - - - - - -
23/03:30pm 24.3 ENE 11 14 1015.9 - - - - - - - - -
23/03:00pm 24.3 ENE 13 15 1016.1 - - - - - - - - -
23/02:30pm 24.1 ENE 12 15 1016.2 - - - - - - - - -
23/02:00pm 23.8 ENE 13 15 1016.5 - - - - - - - - -
23/01:30pm 23.7 ENE 14 17 1016.6 - - - - - - - - -
23/01:00pm 23.8 E 15 17 1017.3 - - - - - - - - -
23/12:30pm 23.8 E 14 17 1018.0 - - - - - - - - -
23/12:00pm 23.9 E 13 16 1018.3 - - - - - - - - -
23/11:30am 23.7 E 13 15 1018.8 - - - - - - - - -
23/11:00am 23.9 E 13 15 1019.1 - - - - - - - - -
23/10:30am 23.7 E 5 7 1019.3 - - - - - - - - -
23/10:00am 23.4 SE 5 7 1019.5 - - - - - - - - -
23/09:30am 22.9 SSE 5 7 1019.6 - - - - - - - - -
23/09:00am 22.6 SSE 8 11 1019.7 - - - - - - - - -
23/08:30am 22.3 SSE 8 10 1019.6 - - - - - - - - -
23/08:00am 22.0 SSE 8 11 1019.5 - - - - - - - - -
23/07:30am 21.8 SSE 11 13 1019.3 - - - - - - - - -
23/07:00am 21.9 SSE 13 15 1019.0 - - - - - - - - -
23/06:30am 21.6 SSE 13 15 1018.7 - - - - - - - - -
23/06:00am 21.5 SSE 12 14 1018.5 - - - - - - - - -
23/05:30am 21.6 SSE 14 16 1018.3 - - - - - - - - -
23/05:00am 21.4 SSE 13 16 1018.0 - - - - - - - - -
23/04:30am 21.6 SSE 14 17 1017.7 - - - - - - - - -
23/04:00am 21.8 SSE 14 17 1017.6 - - - - - - - - -
23/03:30am 21.7 SSE 13 15 1017.8 - - - - - - - - -
23/03:00am 21.9 SSE 12 15 1017.9 - - - - - - - - -
23/02:30am 22.4 SE 12 15 1018.1 - - - - - - - - -
23/02:00am 22.8 SE 10 13 1018.4 - - - - - - - - -
23/01:30am 23.1 SSE 11 14 1018.9 - - - - - - - - -
23/01:00am 23.5 ESE 14 19 1019.3 - - - - - - - - -
23/12:30am 23.6 E 15 18 1019.6 - - - - - - - - -
23/12:00am 23.8 E 15 18 1019.8 - - - - - - - - -
 
Date/Time
EST
Temp

°C
Wind Pressure Rain
since 9am
mm
Weather Cloud Vis
km
Sea
Height
m
Swell
Dir
 
Speed
knots
Gust
knots
hPa Trend Height
m
Period
s
Dir
22/11:30pm 23.7 E 16 18 1020.1 - - - - - - - - -
22/11:00pm 23.9 E 16 20 1020.3 - - - - - - - - -
22/10:30pm 24.0 E 15 17 1020.2 - - - - - - - - -
22/10:00pm 24.1 E 15 17 1020.2 - - - - - - - - -
22/09:30pm 24.0 E 14 18 1020.0 - - - - - - - - -
22/09:00pm 24.1 E 16 19 1019.8 - - - - - - - - -
22/08:30pm 24.2 E 14 17 1019.4 - - - - - - - - -
22/08:00pm 24.2 E 14 17 1019.3 - - - - - - - - -
22/07:30pm 24.3 E 15 19 1019.2 - - - - - - - - -
22/07:00pm 24.2 E 16 20 1019.0 - - - - - - - - -
22/06:30pm 24.2 E 19 23 1018.8 - - - - - - - - -
22/06:00pm 24.2 E 19 25 1018.3 - - - - - - - - -
22/05:30pm 24.2 E 20 26 1018.1 - - - - - - - - -
22/05:00pm 24.4 E 19 25 1017.8 - - - - - - - - -
22/04:30pm 24.4 E 18 23 1017.7 - - - - - - - - -
22/04:00pm 24.4 E 19 23 1017.8 - - - - - - - - -
22/03:30pm 24.3 E 18 21 1017.6 - - - - - - - - -
22/03:00pm 24.3 E 17 21 1017.7 - - - - - - - - -
22/02:30pm 24.5 E 17 21 1017.9 - - - - - - - - -
22/02:00pm 24.5 E 17 21 1018.3 - - - - - - - - -
22/01:30pm 24.3 E 15 20 1018.6 - - - - - - - - -
22/01:00pm 24.3 E 18 21 1019.2 - - - - - - - - -
22/12:30pm 24.1 E 19 23 1019.7 - - - - - - - - -
22/12:00pm 24.0 E 18 21 1020.1 - - - - - - - - -
22/11:30am 23.3 E 13 17 1020.4 - - - - - - - - -
22/11:00am 22.6 SSE 7 10 1020.5 - - - - - - - - -
22/10:30am 21.8 SSE 7 9 1020.6 - - - - - - - - -
22/10:00am 20.9 SSE 6 9 1020.8 - - - - - - - - -
22/09:30am 20.5 SSE 8 11 1021.1 - - - - - - - - -
22/09:00am 20.1 SSE 16 20 1021.3 - - - - - - - - -
22/08:30am 20.2 SSE 16 20 1021.2 - - - - - - - - -
22/08:00am 20.0 SSE 14 20 1020.9 - - - - - - - - -
22/07:30am 20.6 SSE 13 17 1020.6 - - - - - - - - -
22/07:00am 20.1 SE 14 18 1020.4 - - - - - - - - -
22/06:30am 19.7 S 6 8 1019.4 - - - - - - - - -
22/06:00am 20.4 SSE 11 14 1019.3 - - - - - - - - -
22/05:30am 19.9 S 13 16 1018.9 - - - - - - - - -
22/05:00am 20.4 SSE 14 18 1019.1 - - - - - - - - -
22/04:30am 20.1 S 14 15 1018.7 - - - - - - - - -
22/04:00am 20.4 SE 13 17 1018.8 - - - - - - - - -
22/03:30am 20.0 SE 16 20 1018.9 - - - - - - - - -
22/03:00am 21.1 SSE 12 14 1018.5 - - - - - - - - -
22/02:30am 21.1 SSE 16 21 1018.9 - - - - - - - - -
22/02:00am 22.0 SSE 11 13 1019.0 - - - - - - - - -
22/01:30am 21.8 SSE 11 15 1019.4 - - - - - - - - -
22/01:00am 21.9 SSE 13 16 1020.1 - - - - - - - - -
22/12:30am 22.0 S 11 13 1020.4 - - - - - - - - -
22/12:00am 22.4 S 11 13 1020.7 - - - - - - - - -
 
Date/Time
EST
Temp

°C
Wind Pressure Rain
since 9am
mm
Weather Cloud Vis
km
Sea
Height
m
Swell
Dir
 
Speed
knots
Gust
knots
hPa Trend Height
m
Period
s
Dir
21/11:30pm 22.7 S 10 13 1020.9 - - - - - - - - -
21/11:00pm 23.8 ESE 16 24 1021.5 - - - - - - - - -
21/10:30pm 24.2 E 20 26 1022.0 - - - - - - - - -
21/10:00pm 24.1 ESE 19 25 1021.9 - - - - - - - - -

Other Formats:

Comma delimited format used in spreadsheet applications
http://www.bom.gov.au/fwo/IDQ60701/IDQ60701.94297.axf

JavaScript Object Notation format (JSON) in row-major order
http://www.bom.gov.au/fwo/IDQ60701/IDQ60701.94297.json